East Franklin, Vermont
Current Conditions -  °F | °C
As of 11:15 AM on Wednesday 26 Nov 2014 (Local Time) from KFSO Reporting Station
Overcast Overcast  
Wind Chill: 26°   Ceiling: 3100
Heat Index: 32°   Visibility: 10mi
Dew Point: 20°   Wind: 6mph
Humidity: 62%   Direction: 360°N
Pressure: 30.19"   Gusts: NA
Location:  44.9656°N, 72.8975°W
Report Text: KFSO 261615Z AUTO 36005KT 10SM OVC031 00/M06 A3019 RMK AO2 T00001064
Loading
Personal Weather Stations






























Interactive Weather Map New forecast layout! Learn more

10-Day Weather Forecast

Advertisements
Track Severe Weather on mobile